Atlantic Beach, NC (28512)

5:25 AM EDT on March 29, 2017 (GMT -0400)
Out on the dock @ Old Causeway | | Change Station

Elev 4 ft 34.71 °N, 76.75 °W | Updated 10 seconds ago

Mostly Cloudy
Mostly Cloudy
61.2 °F
Feels Like 61.2 °F
N
0.0
Wind Variable Wind from North
Gusts 0.0 mph

Today
High -- | Low -- °F
--% Chance of Precip.
Yesterday
High -- | Low -- °F
Precip. -- in
Pressure 29.93 in
Visibility 10.0 miles
Clouds Overcast 9000 ft
Dew Point 61 °F
Humidity 100%
Rainfall 0.00 in
Snow Depth Not available.
6:57 AM 7:25 PM
New Moon, 2% visible
METAR KMRH 290858Z AUTO 31006KT 10SM OVC090 17/17 A2993 RMK AO2 SLP134 6//// T01720172 53005 TSNO PNO $
Pressure 29.93 in
Visibility 10.0 miles
Clouds Overcast 9000 ft
Dew Point 61 °F
Humidity 100%
Rainfall 0.00 in
Snow Depth Not available.
6:57 AM 7:25 PM
New Moon, 2% visible
METAR KMRH 290858Z AUTO 31006KT 10SM OVC090 17/17 A2993 RMK AO2 SLP134 6//// T01720172 53005 TSNO PNO $

Get Severe Weather Alerts

Thanks for signing up!

Be on the lookout for a verification email in your inbox.

You'll start receiving the daily forecast at 8 AM.

×

10-Day Weather Forecast

Almanac

Astronomy

Mar. 29, 2017 Rise Set
Actual Time
Civil Twilight
Nautical Twilight
Astronomical Twilight
Moon
Length of Visible Light
Length of Day
Tomorrow will be .
, % of the Moon is Illuminated

Today's Extremes

State Highs State Lows

Community

WunderPhotos

Upload Photos

1,962,540 photos uploaded!

WunderBlog® & News

Nearby

Air Quality

  Air Quality AQ Index Pollutant
Not available.

Snow Depth

Station Depth Elevation

Earthquake Activity

City Distance Mag. Time & Date
Minimum magnitude displayed is 2.5.

Earthquake Activity

City Distance Mag. Time & Date
Minimum magnitude displayed is 2.5.

Coastal Water Temperatures

Place Temperature

Stations

Nearby Weather Stations

Station Location Temp. Windchill Dew Point Humidity Wind Precip. Elev Updated Type
                   

Watches & Warnings

There are currently no watches in effect.